sensor_id;sensor_type;location;lat;lon;timestamp;temperature;humidity
5164;DHT22;2601;50.224;10.126;2022-10-16T00:01:29;15.50;99.90
5164;DHT22;2601;50.224;10.126;2022-10-16T00:03:57;15.60;99.90
5164;DHT22;2601;50.224;10.126;2022-10-16T00:06:24;15.50;99.90
5164;DHT22;2601;50.224;10.126;2022-10-16T00:08:50;15.60;99.90
5164;DHT22;2601;50.224;10.126;2022-10-16T00:11:20;15.60;99.90
5164;DHT22;2601;50.224;10.126;2022-10-16T00:13:48;15.60;99.90
5164;DHT22;2601;50.224;10.126;2022-10-16T00:16:15;15.50;99.90
5164;DHT22;2601;50.224;10.126;2022-10-16T00:18:41;15.50;99.90
5164;DHT22;2601;50.224;10.126;2022-10-16T00:21:09;15.40;99.90
5164;DHT22;2601;50.224;10.126;2022-10-16T00:23:36;15.40;99.90
5164;DHT22;2601;50.224;10.126;2022-10-16T00:26:05;15.40;99.90
5164;DHT22;2601;50.224;10.126;2022-10-16T00:28:32;15.40;99.90
5164;DHT22;2601;50.224;10.126;2022-10-16T00:30:58;15.30;99.90
5164;DHT22;2601;50.224;10.126;2022-10-16T00:33:24;15.30;99.90
5164;DHT22;2601;50.224;10.126;2022-10-16T00:35:50;15.30;99.90
5164;DHT22;2601;50.224;10.126;2022-10-16T00:38:17;15.30;99.90
5164;DHT22;2601;50.224;10.126;2022-10-16T00:40:43;15.20;99.90
5164;DHT22;2601;50.224;10.126;2022-10-16T00:46:00;15.20;99.90
5164;DHT22;2601;50.224;10.126;2022-10-16T00:48:26;15.20;99.90
5164;DHT22;2601;50.224;10.126;2022-10-16T00:50:52;15.20;99.90
5164;DHT22;2601;50.224;10.126;2022-10-16T00:53:18;15.30;99.90
5164;DHT22;2601;50.224;10.126;2022-10-16T00:55:45;15.30;99.90
5164;DHT22;2601;50.224;10.126;2022-10-16T00:58:11;15.40;99.90
5164;DHT22;2601;50.224;10.126;2022-10-16T01:00:37;15.30;99.90
5164;DHT22;2601;50.224;10.126;2022-10-16T01:03:24;15.40;99.90
5164;DHT22;2601;50.224;10.126;2022-10-16T01:06:14;15.30;99.90
5164;DHT22;2601;50.224;10.126;2022-10-16T01:14:32;15.40;99.90
5164;DHT22;2601;50.224;10.126;2022-10-16T01:17:12;15.40;99.90
5164;DHT22;2601;50.224;10.126;2022-10-16T01:22:37;15.50;99.90
5164;DHT22;2601;50.224;10.126;2022-10-16T01:25:08;15.50;99.90
5164;DHT22;2601;50.224;10.126;2022-10-16T01:27:36;15.50;99.90
5164;DHT22;2601;50.224;10.126;2022-10-16T01:30:23;15.40;99.90
5164;DHT22;2601;50.224;10.126;2022-10-16T01:33:06;15.30;99.90
5164;DHT22;2601;50.224;10.126;2022-10-16T01:35:41;15.20;99.90
5164;DHT22;2601;50.224;10.126;2022-10-16T01:38:16;15.20;99.90
5164;DHT22;2601;50.224;10.126;2022-10-16T01:40:55;15.30;99.90
5164;DHT22;2601;50.224;10.126;2022-10-16T01:43:42;15.30;99.90
5164;DHT22;2601;50.224;10.126;2022-10-16T01:46:10;15.20;99.90
5164;DHT22;2601;50.224;10.126;2022-10-16T01:48:39;15.20;99.90
5164;DHT22;2601;50.224;10.126;2022-10-16T01:51:08;15.20;99.90
5164;DHT22;2601;50.224;10.126;2022-10-16T01:53:35;15.20;99.90
5164;DHT22;2601;50.224;10.126;2022-10-16T01:56:04;15.20;99.90
5164;DHT22;2601;50.224;10.126;2022-10-16T01:58:35;15.20;99.90
5164;DHT22;2601;50.224;10.126;2022-10-16T02:01:02;15.20;99.90
5164;DHT22;2601;50.224;10.126;2022-10-16T02:03:29;15.30;99.90
5164;DHT22;2601;50.224;10.126;2022-10-16T02:05:57;15.30;99.90
5164;DHT22;2601;50.224;10.126;2022-10-16T02:08:25;15.30;99.90
5164;DHT22;2601;50.224;10.126;2022-10-16T02:10:58;15.30;99.90
5164;DHT22;2601;50.224;10.126;2022-10-16T02:13:30;15.20;99.90
5164;DHT22;2601;50.224;10.126;2022-10-16T02:15:57;15.30;99.90
5164;DHT22;2601;50.224;10.126;2022-10-16T02:18:23;15.20;99.90
5164;DHT22;2601;50.224;10.126;2022-10-16T02:23:28;15.20;99.90
5164;DHT22;2601;50.224;10.126;2022-10-16T02:25:56;15.20;99.90
5164;DHT22;2601;50.224;10.126;2022-10-16T02:28:27;15.20;99.90
5164;DHT22;2601;50.224;10.126;2022-10-16T02:31:08;15.20;99.90
5164;DHT22;2601;50.224;10.126;2022-10-16T02:33:37;15.10;99.90
5164;DHT22;2601;50.224;10.126;2022-10-16T02:36:04;15.10;99.90
5164;DHT22;2601;50.224;10.126;2022-10-16T02:38:30;15.10;99.90
5164;DHT22;2601;50.224;10.126;2022-10-16T02:40:56;15.10;99.90
5164;DHT22;2601;50.224;10.126;2022-10-16T02:43:22;15.10;99.90
5164;DHT22;2601;50.224;10.126;2022-10-16T02:45:48;15.10;99.90
5164;DHT22;2601;50.224;10.126;2022-10-16T02:48:14;15.10;99.90
5164;DHT22;2601;50.224;10.126;2022-10-16T02:50:40;15.10;99.90
5164;DHT22;2601;50.224;10.126;2022-10-16T02:53:05;15.10;99.90
5164;DHT22;2601;50.224;10.126;2022-10-16T02:55:32;15.00;99.90
5164;DHT22;2601;50.224;10.126;2022-10-16T02:57:58;15.00;99.90
5164;DHT22;2601;50.224;10.126;2022-10-16T03:00:24;15.10;99.90
5164;DHT22;2601;50.224;10.126;2022-10-16T03:02:50;15.10;99.90
5164;DHT22;2601;50.224;10.126;2022-10-16T03:05:16;15.10;99.90
5164;DHT22;2601;50.224;10.126;2022-10-16T03:07:42;15.10;99.90
5164;DHT22;2601;50.224;10.126;2022-10-16T03:10:08;15.10;99.90
5164;DHT22;2601;50.224;10.126;2022-10-16T03:12:34;15.10;99.90
5164;DHT22;2601;50.224;10.126;2022-10-16T03:15:00;15.10;99.90
5164;DHT22;2601;50.224;10.126;2022-10-16T03:17:26;15.10;99.90
5164;DHT22;2601;50.224;10.126;2022-10-16T03:19:51;15.10;99.90
5164;DHT22;2601;50.224;10.126;2022-10-16T03:22:17;15.00;99.90
5164;DHT22;2601;50.224;10.126;2022-10-16T03:24:43;15.10;99.90
5164;DHT22;2601;50.224;10.126;2022-10-16T03:27:09;15.00;99.90
5164;DHT22;2601;50.224;10.126;2022-10-16T03:29:34;15.10;99.90
5164;DHT22;2601;50.224;10.126;2022-10-16T03:32:01;15.10;99.90
5164;DHT22;2601;50.224;10.126;2022-10-16T03:34:27;15.10;99.90
5164;DHT22;2601;50.224;10.126;2022-10-16T03:36:53;15.20;99.90
5164;DHT22;2601;50.224;10.126;2022-10-16T03:39:19;15.10;99.90
5164;DHT22;2601;50.224;10.126;2022-10-16T03:41:45;15.10;99.90
5164;DHT22;2601;50.224;10.126;2022-10-16T03:44:12;15.10;99.90
5164;DHT22;2601;50.224;10.126;2022-10-16T03:46:37;15.10;99.90
5164;DHT22;2601;50.224;10.126;2022-10-16T03:49:03;15.10;99.90
5164;DHT22;2601;50.224;10.126;2022-10-16T03:51:29;15.10;99.90
5164;DHT22;2601;50.224;10.126;2022-10-16T03:53:54;15.00;99.90
5164;DHT22;2601;50.224;10.126;2022-10-16T03:56:20;15.10;99.90
5164;DHT22;2601;50.224;10.126;2022-10-16T03:58:46;15.10;99.90
5164;DHT22;2601;50.224;10.126;2022-10-16T04:01:12;15.10;99.90
5164;DHT22;2601;50.224;10.126;2022-10-16T04:03:37;15.00;99.90
5164;DHT22;2601;50.224;10.126;2022-10-16T04:06:03;15.00;99.90
5164;DHT22;2601;50.224;10.126;2022-10-16T04:08:29;15.00;99.90
5164;DHT22;2601;50.224;10.126;2022-10-16T04:10:55;15.00;99.90
5164;DHT22;2601;50.224;10.126;2022-10-16T04:13:20;15.00;99.90
5164;DHT22;2601;50.224;10.126;2022-10-16T04:15:46;15.00;99.90
5164;DHT22;2601;50.224;10.126;2022-10-16T04:18:12;15.00;99.90
5164;DHT22;2601;50.224;10.126;2022-10-16T04:20:38;15.00;99.90
5164;DHT22;2601;50.224;10.126;2022-10-16T04:23:04;14.90;99.90
5164;DHT22;2601;50.224;10.126;2022-10-16T04:25:30;14.90;99.90
5164;DHT22;2601;50.224;10.126;2022-10-16T04:27:56;14.90;99.90
5164;DHT22;2601;50.224;10.126;2022-10-16T04:30:22;14.90;99.90
5164;DHT22;2601;50.224;10.126;2022-10-16T04:32:49;14.90;99.90
5164;DHT22;2601;50.224;10.126;2022-10-16T04:35:16;14.90;99.90
5164;DHT22;2601;50.224;10.126;2022-10-16T04:37:42;14.90;99.90
5164;DHT22;2601;50.224;10.126;2022-10-16T04:40:08;14.90;99.90
5164;DHT22;2601;50.224;10.126;2022-10-16T04:42:34;14.90;99.90
5164;DHT22;2601;50.224;10.126;2022-10-16T04:44:59;14.90;99.90
5164;DHT22;2601;50.224;10.126;2022-10-16T04:47:25;14.90;99.90
5164;DHT22;2601;50.224;10.126;2022-10-16T04:49:51;14.90;99.90
5164;DHT22;2601;50.224;10.126;2022-10-16T04:52:16;14.90;99.90
5164;DHT22;2601;50.224;10.126;2022-10-16T04:54:44;14.80;99.90
5164;DHT22;2601;50.224;10.126;2022-10-16T04:57:11;14.80;99.90
5164;DHT22;2601;50.224;10.126;2022-10-16T04:59:37;14.70;99.90
5164;DHT22;2601;50.224;10.126;2022-10-16T05:02:03;14.70;99.90
5164;DHT22;2601;50.224;10.126;2022-10-16T05:04:29;14.70;99.90
5164;DHT22;2601;50.224;10.126;2022-10-16T05:06:57;14.70;99.90
5164;DHT22;2601;50.224;10.126;2022-10-16T05:09:23;14.70;99.90
5164;DHT22;2601;50.224;10.126;2022-10-16T05:11:49;14.60;99.90
5164;DHT22;2601;50.224;10.126;2022-10-16T05:14:15;14.60;99.90
5164;DHT22;2601;50.224;10.126;2022-10-16T05:16:40;14.60;99.90
5164;DHT22;2601;50.224;10.126;2022-10-16T05:19:06;14.60;99.90
5164;DHT22;2601;50.224;10.126;2022-10-16T05:21:32;14.50;99.90
5164;DHT22;2601;50.224;10.126;2022-10-16T05:23:57;14.60;99.90
5164;DHT22;2601;50.224;10.126;2022-10-16T05:26:23;14.60;99.90
5164;DHT22;2601;50.224;10.126;2022-10-16T05:28:49;14.60;99.90
5164;DHT22;2601;50.224;10.126;2022-10-16T05:31:15;14.60;99.90
5164;DHT22;2601;50.224;10.126;2022-10-16T05:33:40;14.60;99.90
5164;DHT22;2601;50.224;10.126;2022-10-16T05:36:08;14.60;99.90
5164;DHT22;2601;50.224;10.126;2022-10-16T05:38:35;14.60;99.90
5164;DHT22;2601;50.224;10.126;2022-10-16T05:41:01;14.60;99.90
5164;DHT22;2601;50.224;10.126;2022-10-16T05:43:27;14.70;99.90
5164;DHT22;2601;50.224;10.126;2022-10-16T05:45:58;14.70;99.90
5164;DHT22;2601;50.224;10.126;2022-10-16T05:48:24;14.70;99.90
5164;DHT22;2601;50.224;10.126;2022-10-16T05:51:02;14.70;99.90
5164;DHT22;2601;50.224;10.126;2022-10-16T05:53:30;14.70;99.90
5164;DHT22;2601;50.224;10.126;2022-10-16T05:55:56;14.70;99.90
5164;DHT22;2601;50.224;10.126;2022-10-16T05:58:23;14.70;99.90
5164;DHT22;2601;50.224;10.126;2022-10-16T06:00:57;14.70;99.90
5164;DHT22;2601;50.224;10.126;2022-10-16T06:03:23;14.70;99.90
5164;DHT22;2601;50.224;10.126;2022-10-16T06:05:49;14.70;99.90
5164;DHT22;2601;50.224;10.126;2022-10-16T06:08:15;14.70;99.90
5164;DHT22;2601;50.224;10.126;2022-10-16T06:10:41;14.60;99.90
5164;DHT22;2601;50.224;10.126;2022-10-16T06:13:07;14.60;99.90
5164;DHT22;2601;50.224;10.126;2022-10-16T06:15:33;14.60;99.90
5164;DHT22;2601;50.224;10.126;2022-10-16T06:17:58;14.60;99.90
5164;DHT22;2601;50.224;10.126;2022-10-16T06:20:24;14.60;99.90
5164;DHT22;2601;50.224;10.126;2022-10-16T06:22:50;14.60;99.90
5164;DHT22;2601;50.224;10.126;2022-10-16T06:25:15;14.70;99.90
5164;DHT22;2601;50.224;10.126;2022-10-16T06:27:41;14.70;99.90
5164;DHT22;2601;50.224;10.126;2022-10-16T06:30:07;14.70;99.90
5164;DHT22;2601;50.224;10.126;2022-10-16T06:32:34;14.70;99.90
5164;DHT22;2601;50.224;10.126;2022-10-16T06:35:00;14.70;99.90
5164;DHT22;2601;50.224;10.126;2022-10-16T06:37:26;14.80;99.90
5164;DHT22;2601;50.224;10.126;2022-10-16T06:39:52;14.80;99.90
5164;DHT22;2601;50.224;10.126;2022-10-16T06:42:18;14.90;99.90
5164;DHT22;2601;50.224;10.126;2022-10-16T06:44:44;14.90;99.90
5164;DHT22;2601;50.224;10.126;2022-10-16T06:47:10;14.90;99.90
5164;DHT22;2601;50.224;10.126;2022-10-16T06:49:36;14.90;99.90
5164;DHT22;2601;50.224;10.126;2022-10-16T06:52:02;14.90;99.90
5164;DHT22;2601;50.224;10.126;2022-10-16T06:54:28;15.00;99.90
5164;DHT22;2601;50.224;10.126;2022-10-16T06:56:54;15.00;99.90
5164;DHT22;2601;50.224;10.126;2022-10-16T06:59:20;15.00;99.90
5164;DHT22;2601;50.224;10.126;2022-10-16T07:01:46;15.00;99.90
5164;DHT22;2601;50.224;10.126;2022-10-16T07:04:12;15.00;99.90
5164;DHT22;2601;50.224;10.126;2022-10-16T07:06:38;15.10;99.90
5164;DHT22;2601;50.224;10.126;2022-10-16T07:09:08;15.10;99.90
5164;DHT22;2601;50.224;10.126;2022-10-16T07:11:35;15.10;99.90
5164;DHT22;2601;50.224;10.126;2022-10-16T07:14:01;15.20;99.90
5164;DHT22;2601;50.224;10.126;2022-10-16T07:16:29;15.20;99.90
5164;DHT22;2601;50.224;10.126;2022-10-16T07:18:57;15.30;99.90
5164;DHT22;2601;50.224;10.126;2022-10-16T07:21:26;15.30;99.90
5164;DHT22;2601;50.224;10.126;2022-10-16T07:23:56;15.30;99.90
5164;DHT22;2601;50.224;10.126;2022-10-16T07:26:23;15.40;99.90
5164;DHT22;2601;50.224;10.126;2022-10-16T07:28:50;15.50;99.90
5164;DHT22;2601;50.224;10.126;2022-10-16T07:31:17;15.50;99.90
5164;DHT22;2601;50.224;10.126;2022-10-16T07:33:44;15.60;99.90
5164;DHT22;2601;50.224;10.126;2022-10-16T07:36:11;15.60;99.90
5164;DHT22;2601;50.224;10.126;2022-10-16T07:38:37;15.70;99.90
5164;DHT22;2601;50.224;10.126;2022-10-16T07:41:10;15.90;99.90
5164;DHT22;2601;50.224;10.126;2022-10-16T07:43:36;16.00;99.90
5164;DHT22;2601;50.224;10.126;2022-10-16T07:46:02;16.00;99.90
5164;DHT22;2601;50.224;10.126;2022-10-16T07:48:30;16.00;99.90
5164;DHT22;2601;50.224;10.126;2022-10-16T07:51:04;16.10;99.90
5164;DHT22;2601;50.224;10.126;2022-10-16T07:53:30;16.20;99.90
5164;DHT22;2601;50.224;10.126;2022-10-16T07:56:01;16.20;99.90
5164;DHT22;2601;50.224;10.126;2022-10-16T07:58:28;16.30;99.90
5164;DHT22;2601;50.224;10.126;2022-10-16T08:00:54;16.30;99.90
5164;DHT22;2601;50.224;10.126;2022-10-16T08:03:20;16.40;99.90
5164;DHT22;2601;50.224;10.126;2022-10-16T08:05:45;16.60;99.90
5164;DHT22;2601;50.224;10.126;2022-10-16T08:08:14;16.70;99.90
5164;DHT22;2601;50.224;10.126;2022-10-16T08:10:40;16.70;99.90
5164;DHT22;2601;50.224;10.126;2022-10-16T08:13:06;16.80;99.90
5164;DHT22;2601;50.224;10.126;2022-10-16T08:15:31;16.80;99.90
5164;DHT22;2601;50.224;10.126;2022-10-16T08:18:02;16.90;99.90
5164;DHT22;2601;50.224;10.126;2022-10-16T08:20:29;17.00;99.90
5164;DHT22;2601;50.224;10.126;2022-10-16T08:22:55;17.10;99.90
5164;DHT22;2601;50.224;10.126;2022-10-16T08:25:22;17.00;99.90
5164;DHT22;2601;50.224;10.126;2022-10-16T08:27:48;17.10;99.90
5164;DHT22;2601;50.224;10.126;2022-10-16T08:30:14;17.20;99.90
5164;DHT22;2601;50.224;10.126;2022-10-16T08:32:40;17.30;99.90
5164;DHT22;2601;50.224;10.126;2022-10-16T08:35:10;17.40;99.90
5164;DHT22;2601;50.224;10.126;2022-10-16T08:37:36;17.40;99.90
5164;DHT22;2601;50.224;10.126;2022-10-16T08:40:03;17.40;99.90
5164;DHT22;2601;50.224;10.126;2022-10-16T08:47:49;17.70;99.90
5164;DHT22;2601;50.224;10.126;2022-10-16T08:50:26;17.80;99.90
5164;DHT22;2601;50.224;10.126;2022-10-16T08:52:54;17.90;99.90
5164;DHT22;2601;50.224;10.126;2022-10-16T08:55:33;18.20;99.90
5164;DHT22;2601;50.224;10.126;2022-10-16T08:58:28;18.40;99.90
5164;DHT22;2601;50.224;10.126;2022-10-16T09:00:55;18.40;99.90
5164;DHT22;2601;50.224;10.126;2022-10-16T09:11:56;17.90;99.90
5164;DHT22;2601;50.224;10.126;2022-10-16T09:22:35;17.20;99.90
5164;DHT22;2601;50.224;10.126;2022-10-16T09:25:11;17.00;99.90
5164;DHT22;2601;50.224;10.126;2022-10-16T09:27:38;16.90;99.90
5164;DHT22;2601;50.224;10.126;2022-10-16T09:30:14;16.90;99.90
5164;DHT22;2601;50.224;10.126;2022-10-16T09:32:41;16.80;99.90
5164;DHT22;2601;50.224;10.126;2022-10-16T09:35:15;16.80;99.90
5164;DHT22;2601;50.224;10.126;2022-10-16T09:37:44;16.70;99.90
5164;DHT22;2601;50.224;10.126;2022-10-16T09:40:28;16.70;99.90
5164;DHT22;2601;50.224;10.126;2022-10-16T09:43:24;16.70;99.90
5164;DHT22;2601;50.224;10.126;2022-10-16T09:46:02;16.60;99.90
5164;DHT22;2601;50.224;10.126;2022-10-16T09:48:46;16.50;99.90
5164;DHT22;2601;50.224;10.126;2022-10-16T09:51:31;16.40;99.90
5164;DHT22;2601;50.224;10.126;2022-10-16T09:54:00;16.40;99.90
5164;DHT22;2601;50.224;10.126;2022-10-16T09:56:27;16.50;99.90
5164;DHT22;2601;50.224;10.126;2022-10-16T09:58:56;16.50;99.90
5164;DHT22;2601;50.224;10.126;2022-10-16T10:01:31;16.50;99.90
5164;DHT22;2601;50.224;10.126;2022-10-16T10:04:01;16.50;99.90
5164;DHT22;2601;50.224;10.126;2022-10-16T10:06:31;16.50;99.90
5164;DHT22;2601;50.224;10.126;2022-10-16T10:09:06;16.50;99.90
5164;DHT22;2601;50.224;10.126;2022-10-16T10:11:52;16.40;99.90
5164;DHT22;2601;50.224;10.126;2022-10-16T10:14:39;16.40;99.90
5164;DHT22;2601;50.224;10.126;2022-10-16T10:19:48;16.50;99.90
5164;DHT22;2601;50.224;10.126;2022-10-16T10:25:10;16.60;99.90
5164;DHT22;2601;50.224;10.126;2022-10-16T10:35:22;17.10;99.90
5164;DHT22;2601;50.224;10.126;2022-10-16T10:40:45;17.20;99.90
5164;DHT22;2601;50.224;10.126;2022-10-16T10:46:51;17.40;99.90
5164;DHT22;2601;50.224;10.126;2022-10-16T11:00:39;18.10;99.90
5164;DHT22;2601;50.224;10.126;2022-10-16T11:05:52;18.60;99.90
5164;DHT22;2601;50.224;10.126;2022-10-16T11:08:24;18.70;99.90
5164;DHT22;2601;50.224;10.126;2022-10-16T11:11:02;18.80;99.90
5164;DHT22;2601;50.224;10.126;2022-10-16T11:13:39;18.80;99.90
5164;DHT22;2601;50.224;10.126;2022-10-16T11:16:20;18.70;99.90
5164;DHT22;2601;50.224;10.126;2022-10-16T11:21:39;19.50;99.90
5164;DHT22;2601;50.224;10.126;2022-10-16T11:27:08;21.20;99.90
5164;DHT22;2601;50.224;10.126;2022-10-16T11:29:35;21.20;99.90
5164;DHT22;2601;50.224;10.126;2022-10-16T11:32:24;22.00;99.90
5164;DHT22;2601;50.224;10.126;2022-10-16T11:34:59;21.20;99.90
5164;DHT22;2601;50.224;10.126;2022-10-16T11:37:33;20.90;99.90
5164;DHT22;2601;50.224;10.126;2022-10-16T11:40:25;20.90;99.90
5164;DHT22;2601;50.224;10.126;2022-10-16T11:43:17;21.10;99.90
5164;DHT22;2601;50.224;10.126;2022-10-16T11:46:18;20.80;99.90
5164;DHT22;2601;50.224;10.126;2022-10-16T11:49:07;21.00;99.90
5164;DHT22;2601;50.224;10.126;2022-10-16T11:56:49;23.60;99.90
5164;DHT22;2601;50.224;10.126;2022-10-16T11:59:42;23.30;99.90
5164;DHT22;2601;50.224;10.126;2022-10-16T12:10:30;23.70;99.90
5164;DHT22;2601;50.224;10.126;2022-10-16T12:15:47;23.60;99.90
5164;DHT22;2601;50.224;10.126;2022-10-16T12:18:24;23.70;99.90
5164;DHT22;2601;50.224;10.126;2022-10-16T12:20:57;24.00;99.90
5164;DHT22;2601;50.224;10.126;2022-10-16T12:23:37;23.40;99.90
5164;DHT22;2601;50.224;10.126;2022-10-16T12:26:04;23.60;99.90
5164;DHT22;2601;50.224;10.126;2022-10-16T12:28:31;23.30;99.90
5164;DHT22;2601;50.224;10.126;2022-10-16T12:31:06;22.70;99.90
5164;DHT22;2601;50.224;10.126;2022-10-16T12:33:36;21.90;99.90
5164;DHT22;2601;50.224;10.126;2022-10-16T12:36:08;21.50;99.90
5164;DHT22;2601;50.224;10.126;2022-10-16T12:41:11;21.50;99.90
5164;DHT22;2601;50.224;10.126;2022-10-16T12:43:47;20.80;99.90
5164;DHT22;2601;50.224;10.126;2022-10-16T12:48:41;19.80;99.90
5164;DHT22;2601;50.224;10.126;2022-10-16T13:20:20;25.50;99.90
5164;DHT22;2601;50.224;10.126;2022-10-16T13:28:10;24.40;99.90
5164;DHT22;2601;50.224;10.126;2022-10-16T13:30:44;23.90;99.90
5164;DHT22;2601;50.224;10.126;2022-10-16T13:33:20;23.70;99.90
5164;DHT22;2601;50.224;10.126;2022-10-16T13:35:53;24.90;99.90
5164;DHT22;2601;50.224;10.126;2022-10-16T13:38:25;26.00;99.90
5164;DHT22;2601;50.224;10.126;2022-10-16T13:43:45;26.80;99.90
5164;DHT22;2601;50.224;10.126;2022-10-16T13:46:22;26.70;99.90
5164;DHT22;2601;50.224;10.126;2022-10-16T13:49:01;26.10;99.90
5164;DHT22;2601;50.224;10.126;2022-10-16T13:51:27;26.30;99.90
5164;DHT22;2601;50.224;10.126;2022-10-16T13:53:55;26.80;99.90
5164;DHT22;2601;50.224;10.126;2022-10-16T13:56:25;27.10;99.90
5164;DHT22;2601;50.224;10.126;2022-10-16T14:04:05;25.50;99.90
5164;DHT22;2601;50.224;10.126;2022-10-16T14:06:32;24.40;99.90
5164;DHT22;2601;50.224;10.126;2022-10-16T14:09:03;23.10;99.90
5164;DHT22;2601;50.224;10.126;2022-10-16T14:11:30;23.30;99.90
5164;DHT22;2601;50.224;10.126;2022-10-16T14:13:56;23.40;99.90
5164;DHT22;2601;50.224;10.126;2022-10-16T14:16:28;23.10;99.90
5164;DHT22;2601;50.224;10.126;2022-10-16T14:19:03;23.30;99.90
5164;DHT22;2601;50.224;10.126;2022-10-16T14:21:32;23.10;99.90
5164;DHT22;2601;50.224;10.126;2022-10-16T14:23:58;23.10;99.90
5164;DHT22;2601;50.224;10.126;2022-10-16T14:26:26;24.20;99.90
5164;DHT22;2601;50.224;10.126;2022-10-16T14:29:12;24.60;99.90
5164;DHT22;2601;50.224;10.126;2022-10-16T14:31:39;24.30;99.90
5164;DHT22;2601;50.224;10.126;2022-10-16T14:34:23;23.50;99.90
5164;DHT22;2601;50.224;10.126;2022-10-16T14:36:50;22.40;99.90
5164;DHT22;2601;50.224;10.126;2022-10-16T14:39:23;21.90;99.90
5164;DHT22;2601;50.224;10.126;2022-10-16T14:41:52;21.60;99.90
5164;DHT22;2601;50.224;10.126;2022-10-16T14:44:24;21.40;99.90
5164;DHT22;2601;50.224;10.126;2022-10-16T14:46:51;21.30;99.90
5164;DHT22;2601;50.224;10.126;2022-10-16T14:49:19;21.10;99.90
5164;DHT22;2601;50.224;10.126;2022-10-16T14:51:46;21.00;99.90
5164;DHT22;2601;50.224;10.126;2022-10-16T14:54:16;20.90;99.90
5164;DHT22;2601;50.224;10.126;2022-10-16T14:56:54;20.80;99.90
5164;DHT22;2601;50.224;10.126;2022-10-16T14:59:31;20.70;99.90
5164;DHT22;2601;50.224;10.126;2022-10-16T15:01:57;20.60;99.90
5164;DHT22;2601;50.224;10.126;2022-10-16T15:04:23;20.70;99.90
5164;DHT22;2601;50.224;10.126;2022-10-16T15:06:49;20.60;99.90
5164;DHT22;2601;50.224;10.126;2022-10-16T15:09:15;21.00;99.90
5164;DHT22;2601;50.224;10.126;2022-10-16T15:11:41;21.60;99.90
5164;DHT22;2601;50.224;10.126;2022-10-16T15:14:11;21.80;99.90
5164;DHT22;2601;50.224;10.126;2022-10-16T15:16:38;22.00;99.90
5164;DHT22;2601;50.224;10.126;2022-10-16T15:19:03;21.90;99.90
5164;DHT22;2601;50.224;10.126;2022-10-16T15:21:31;21.70;99.90
5164;DHT22;2601;50.224;10.126;2022-10-16T15:23:58;21.50;99.90
5164;DHT22;2601;50.224;10.126;2022-10-16T15:26:25;21.20;99.90
5164;DHT22;2601;50.224;10.126;2022-10-16T15:28:52;20.90;99.90
5164;DHT22;2601;50.224;10.126;2022-10-16T15:31:18;20.60;99.90
5164;DHT22;2601;50.224;10.126;2022-10-16T15:33:44;20.40;99.90
5164;DHT22;2601;50.224;10.126;2022-10-16T15:36:13;20.10;99.90
5164;DHT22;2601;50.224;10.126;2022-10-16T15:38:39;19.80;99.90
5164;DHT22;2601;50.224;10.126;2022-10-16T15:41:04;19.60;99.90
5164;DHT22;2601;50.224;10.126;2022-10-16T15:43:30;19.40;99.90
5164;DHT22;2601;50.224;10.126;2022-10-16T15:48:27;19.00;99.90
5164;DHT22;2601;50.224;10.126;2022-10-16T15:50:53;19.00;99.90
5164;DHT22;2601;50.224;10.126;2022-10-16T15:53:19;18.90;99.90
5164;DHT22;2601;50.224;10.126;2022-10-16T15:55:44;18.80;99.90
5164;DHT22;2601;50.224;10.126;2022-10-16T15:58:10;18.70;99.90
5164;DHT22;2601;50.224;10.126;2022-10-16T16:00:36;18.70;99.90
5164;DHT22;2601;50.224;10.126;2022-10-16T16:03:01;18.60;99.90
5164;DHT22;2601;50.224;10.126;2022-10-16T16:05:27;18.50;99.90
5164;DHT22;2601;50.224;10.126;2022-10-16T16:07:53;18.40;99.90
5164;DHT22;2601;50.224;10.126;2022-10-16T16:10:19;18.50;99.90
5164;DHT22;2601;50.224;10.126;2022-10-16T16:12:49;18.50;99.90
5164;DHT22;2601;50.224;10.126;2022-10-16T16:15:19;18.50;99.90
5164;DHT22;2601;50.224;10.126;2022-10-16T16:17:45;18.40;99.90
5164;DHT22;2601;50.224;10.126;2022-10-16T16:20:11;18.20;99.90
5164;DHT22;2601;50.224;10.126;2022-10-16T16:22:37;18.00;99.90
5164;DHT22;2601;50.224;10.126;2022-10-16T16:25:03;17.90;99.90
5164;DHT22;2601;50.224;10.126;2022-10-16T16:27:29;17.80;99.90
5164;DHT22;2601;50.224;10.126;2022-10-16T16:29:59;17.70;99.90
5164;DHT22;2601;50.224;10.126;2022-10-16T16:32:24;17.60;99.90
5164;DHT22;2601;50.224;10.126;2022-10-16T16:34:50;17.60;99.90
5164;DHT22;2601;50.224;10.126;2022-10-16T16:37:16;17.50;99.90
5164;DHT22;2601;50.224;10.126;2022-10-16T16:39:42;17.50;99.90
5164;DHT22;2601;50.224;10.126;2022-10-16T16:42:08;17.50;99.90
5164;DHT22;2601;50.224;10.126;2022-10-16T16:44:35;17.50;99.90
5164;DHT22;2601;50.224;10.126;2022-10-16T16:47:02;17.50;99.90
5164;DHT22;2601;50.224;10.126;2022-10-16T16:49:28;17.40;99.90
5164;DHT22;2601;50.224;10.126;2022-10-16T16:51:54;17.40;99.90
5164;DHT22;2601;50.224;10.126;2022-10-16T16:54:19;17.30;99.90
5164;DHT22;2601;50.224;10.126;2022-10-16T16:56:45;17.20;99.90
5164;DHT22;2601;50.224;10.126;2022-10-16T16:59:13;17.10;99.90
5164;DHT22;2601;50.224;10.126;2022-10-16T17:01:41;17.10;99.90
5164;DHT22;2601;50.224;10.126;2022-10-16T17:04:07;17.10;99.90
5164;DHT22;2601;50.224;10.126;2022-10-16T17:06:33;17.10;99.90
5164;DHT22;2601;50.224;10.126;2022-10-16T17:09:00;17.00;99.90
5164;DHT22;2601;50.224;10.126;2022-10-16T17:11:28;16.90;99.90
5164;DHT22;2601;50.224;10.126;2022-10-16T17:13:56;16.80;99.90
5164;DHT22;2601;50.224;10.126;2022-10-16T17:16:34;16.80;99.90
5164;DHT22;2601;50.224;10.126;2022-10-16T17:19:05;16.70;99.90
5164;DHT22;2601;50.224;10.126;2022-10-16T17:21:31;16.60;99.90
5164;DHT22;2601;50.224;10.126;2022-10-16T17:23:58;16.50;99.90
5164;DHT22;2601;50.224;10.126;2022-10-16T17:26:24;16.40;99.90
5164;DHT22;2601;50.224;10.126;2022-10-16T17:28:55;16.60;99.90
5164;DHT22;2601;50.224;10.126;2022-10-16T17:31:23;16.50;99.90
5164;DHT22;2601;50.224;10.126;2022-10-16T17:33:49;16.40;99.90
5164;DHT22;2601;50.224;10.126;2022-10-16T17:36:17;16.30;99.90
5164;DHT22;2601;50.224;10.126;2022-10-16T17:38:43;16.20;99.90
5164;DHT22;2601;50.224;10.126;2022-10-16T17:43:41;16.20;99.90
5164;DHT22;2601;50.224;10.126;2022-10-16T17:46:08;16.10;99.90
5164;DHT22;2601;50.224;10.126;2022-10-16T17:48:42;16.00;99.90
5164;DHT22;2601;50.224;10.126;2022-10-16T17:51:12;15.90;99.90
5164;DHT22;2601;50.224;10.126;2022-10-16T17:53:38;15.80;99.90
5164;DHT22;2601;50.224;10.126;2022-10-16T17:56:09;15.80;99.90
5164;DHT22;2601;50.224;10.126;2022-10-16T17:58:35;15.80;99.90
5164;DHT22;2601;50.224;10.126;2022-10-16T18:01:10;15.70;99.90
5164;DHT22;2601;50.224;10.126;2022-10-16T18:03:36;15.70;99.90
5164;DHT22;2601;50.224;10.126;2022-10-16T18:06:02;15.70;99.90
5164;DHT22;2601;50.224;10.126;2022-10-16T18:08:29;15.70;99.90
5164;DHT22;2601;50.224;10.126;2022-10-16T18:10:55;15.80;99.90
5164;DHT22;2601;50.224;10.126;2022-10-16T18:13:21;15.80;99.90
5164;DHT22;2601;50.224;10.126;2022-10-16T18:16:01;15.70;99.90
5164;DHT22;2601;50.224;10.126;2022-10-16T18:18:28;15.60;99.90
5164;DHT22;2601;50.224;10.126;2022-10-16T18:20:58;15.70;99.90